sensor_id;sensor_type;location;lat;lon;timestamp;temperature;humidity
18240;DHT22;9244;50.828;4.718;2023-09-19T00:02:17;15.00;99.90
18240;DHT22;9244;50.828;4.718;2023-09-19T00:04:43;14.90;99.90
18240;DHT22;9244;50.828;4.718;2023-09-19T00:07:10;14.90;99.90
18240;DHT22;9244;50.828;4.718;2023-09-19T00:09:35;14.90;99.90
18240;DHT22;9244;50.828;4.718;2023-09-19T00:12:07;14.90;99.90
18240;DHT22;9244;50.828;4.718;2023-09-19T00:14:34;14.90;99.90
18240;DHT22;9244;50.828;4.718;2023-09-19T00:17:01;14.90;99.90
18240;DHT22;9244;50.828;4.718;2023-09-19T00:19:34;14.90;99.90
18240;DHT22;9244;50.828;4.718;2023-09-19T00:21:59;14.80;99.90
18240;DHT22;9244;50.828;4.718;2023-09-19T00:24:26;14.80;99.90
18240;DHT22;9244;50.828;4.718;2023-09-19T00:26:53;14.80;99.90
18240;DHT22;9244;50.828;4.718;2023-09-19T00:29:21;14.80;99.90
18240;DHT22;9244;50.828;4.718;2023-09-19T00:31:49;14.80;99.90
18240;DHT22;9244;50.828;4.718;2023-09-19T00:34:15;14.70;99.90
18240;DHT22;9244;50.828;4.718;2023-09-19T00:36:41;14.70;99.90
18240;DHT22;9244;50.828;4.718;2023-09-19T00:39:08;14.70;99.90
18240;DHT22;9244;50.828;4.718;2023-09-19T00:41:34;14.70;99.90
18240;DHT22;9244;50.828;4.718;2023-09-19T00:44:03;14.70;99.90
18240;DHT22;9244;50.828;4.718;2023-09-19T00:46:30;14.70;99.90
18240;DHT22;9244;50.828;4.718;2023-09-19T00:48:58;14.70;99.90
18240;DHT22;9244;50.828;4.718;2023-09-19T00:51:25;14.70;99.90
18240;DHT22;9244;50.828;4.718;2023-09-19T00:53:52;14.60;99.90
18240;DHT22;9244;50.828;4.718;2023-09-19T00:56:19;14.60;99.90
18240;DHT22;9244;50.828;4.718;2023-09-19T00:58:45;14.60;99.90
18240;DHT22;9244;50.828;4.718;2023-09-19T01:01:13;14.60;99.90
18240;DHT22;9244;50.828;4.718;2023-09-19T01:03:41;14.60;99.90
18240;DHT22;9244;50.828;4.718;2023-09-19T01:06:07;14.50;99.90
18240;DHT22;9244;50.828;4.718;2023-09-19T01:08:34;14.60;99.90
18240;DHT22;9244;50.828;4.718;2023-09-19T01:11:09;14.50;99.90
18240;DHT22;9244;50.828;4.718;2023-09-19T01:16:32;14.50;99.90
18240;DHT22;9244;50.828;4.718;2023-09-19T01:27:49;14.40;99.90
18240;DHT22;9244;50.828;4.718;2023-09-19T01:30:21;14.40;99.90
18240;DHT22;9244;50.828;4.718;2023-09-19T01:32:50;14.30;99.90
18240;DHT22;9244;50.828;4.718;2023-09-19T01:35:17;14.40;99.90
18240;DHT22;9244;50.828;4.718;2023-09-19T01:37:44;14.30;99.90
18240;DHT22;9244;50.828;4.718;2023-09-19T01:40:12;14.30;99.90
18240;DHT22;9244;50.828;4.718;2023-09-19T01:45:14;14.20;99.90
18240;DHT22;9244;50.828;4.718;2023-09-19T01:47:53;14.20;99.90
18240;DHT22;9244;50.828;4.718;2023-09-19T01:56:05;14.20;99.90
18240;DHT22;9244;50.828;4.718;2023-09-19T01:58:41;14.20;99.90
18240;DHT22;9244;50.828;4.718;2023-09-19T02:01:12;14.20;99.90
18240;DHT22;9244;50.828;4.718;2023-09-19T02:03:41;14.20;99.90
18240;DHT22;9244;50.828;4.718;2023-09-19T02:06:07;14.20;99.90
18240;DHT22;9244;50.828;4.718;2023-09-19T02:08:37;14.20;99.90
18240;DHT22;9244;50.828;4.718;2023-09-19T02:11:02;14.20;99.90
18240;DHT22;9244;50.828;4.718;2023-09-19T02:13:28;14.20;99.90
18240;DHT22;9244;50.828;4.718;2023-09-19T02:15:54;14.20;99.90
18240;DHT22;9244;50.828;4.718;2023-09-19T02:18:21;14.20;99.90
18240;DHT22;9244;50.828;4.718;2023-09-19T02:20:47;14.20;99.90
18240;DHT22;9244;50.828;4.718;2023-09-19T02:23:13;14.10;99.90
18240;DHT22;9244;50.828;4.718;2023-09-19T02:25:39;14.10;99.90
18240;DHT22;9244;50.828;4.718;2023-09-19T02:28:06;14.10;99.90
18240;DHT22;9244;50.828;4.718;2023-09-19T02:30:32;14.10;99.90
18240;DHT22;9244;50.828;4.718;2023-09-19T02:32:58;14.00;99.90
18240;DHT22;9244;50.828;4.718;2023-09-19T02:35:27;14.10;99.90
18240;DHT22;9244;50.828;4.718;2023-09-19T02:37:53;14.10;99.90
18240;DHT22;9244;50.828;4.718;2023-09-19T02:40:19;14.10;99.90
18240;DHT22;9244;50.828;4.718;2023-09-19T02:42:46;14.00;99.90
18240;DHT22;9244;50.828;4.718;2023-09-19T02:45:14;14.10;99.90
18240;DHT22;9244;50.828;4.718;2023-09-19T02:47:40;14.10;99.90
18240;DHT22;9244;50.828;4.718;2023-09-19T02:50:06;14.10;99.90
18240;DHT22;9244;50.828;4.718;2023-09-19T02:52:33;14.10;99.90
18240;DHT22;9244;50.828;4.718;2023-09-19T02:54:59;14.10;99.90
18240;DHT22;9244;50.828;4.718;2023-09-19T02:57:26;14.10;99.90
18240;DHT22;9244;50.828;4.718;2023-09-19T02:59:53;14.10;99.90
18240;DHT22;9244;50.828;4.718;2023-09-19T03:02:18;14.20;99.90
18240;DHT22;9244;50.828;4.718;2023-09-19T03:04:44;14.20;99.90
18240;DHT22;9244;50.828;4.718;2023-09-19T03:07:12;14.20;99.90
18240;DHT22;9244;50.828;4.718;2023-09-19T03:09:38;14.30;99.90
18240;DHT22;9244;50.828;4.718;2023-09-19T03:12:04;14.30;99.90
18240;DHT22;9244;50.828;4.718;2023-09-19T03:14:29;14.30;99.90
18240;DHT22;9244;50.828;4.718;2023-09-19T03:17:01;14.30;99.90
18240;DHT22;9244;50.828;4.718;2023-09-19T03:19:30;14.40;99.90
18240;DHT22;9244;50.828;4.718;2023-09-19T03:21:55;14.40;99.90
18240;DHT22;9244;50.828;4.718;2023-09-19T03:24:23;14.40;99.90
18240;DHT22;9244;50.828;4.718;2023-09-19T03:26:49;14.40;99.90
18240;DHT22;9244;50.828;4.718;2023-09-19T03:29:14;14.40;99.90
18240;DHT22;9244;50.828;4.718;2023-09-19T03:31:41;14.40;99.90
18240;DHT22;9244;50.828;4.718;2023-09-19T03:34:07;14.30;99.90
18240;DHT22;9244;50.828;4.718;2023-09-19T03:36:32;14.30;99.90
18240;DHT22;9244;50.828;4.718;2023-09-19T03:38:58;14.30;99.90
18240;DHT22;9244;50.828;4.718;2023-09-19T03:41:24;14.30;99.90
18240;DHT22;9244;50.828;4.718;2023-09-19T03:43:49;14.20;99.90
18240;DHT22;9244;50.828;4.718;2023-09-19T03:46:15;14.20;99.90
18240;DHT22;9244;50.828;4.718;2023-09-19T03:48:40;14.20;99.90
18240;DHT22;9244;50.828;4.718;2023-09-19T03:51:06;14.20;99.90
18240;DHT22;9244;50.828;4.718;2023-09-19T03:53:32;14.20;99.90
18240;DHT22;9244;50.828;4.718;2023-09-19T03:55:57;14.10;99.90
18240;DHT22;9244;50.828;4.718;2023-09-19T03:58:23;14.10;99.90
18240;DHT22;9244;50.828;4.718;2023-09-19T04:00:49;14.10;99.90
18240;DHT22;9244;50.828;4.718;2023-09-19T04:03:15;14.10;99.90
18240;DHT22;9244;50.828;4.718;2023-09-19T04:05:46;14.10;99.90
18240;DHT22;9244;50.828;4.718;2023-09-19T04:08:13;14.00;99.90
18240;DHT22;9244;50.828;4.718;2023-09-19T04:10:42;14.00;99.90
18240;DHT22;9244;50.828;4.718;2023-09-19T04:13:07;13.90;99.90
18240;DHT22;9244;50.828;4.718;2023-09-19T04:15:33;13.80;99.90
18240;DHT22;9244;50.828;4.718;2023-09-19T04:17:59;13.80;99.90
18240;DHT22;9244;50.828;4.718;2023-09-19T04:20:25;13.90;99.90
18240;DHT22;9244;50.828;4.718;2023-09-19T04:22:51;13.80;99.90
18240;DHT22;9244;50.828;4.718;2023-09-19T04:25:16;13.80;99.90
18240;DHT22;9244;50.828;4.718;2023-09-19T04:27:44;13.80;99.90
18240;DHT22;9244;50.828;4.718;2023-09-19T04:30:10;13.80;99.90
18240;DHT22;9244;50.828;4.718;2023-09-19T04:32:38;13.80;99.90
18240;DHT22;9244;50.828;4.718;2023-09-19T04:35:09;13.80;99.90
18240;DHT22;9244;50.828;4.718;2023-09-19T04:37:39;13.80;99.90
18240;DHT22;9244;50.828;4.718;2023-09-19T04:40:06;13.80;99.90
18240;DHT22;9244;50.828;4.718;2023-09-19T04:42:38;13.80;99.90
18240;DHT22;9244;50.828;4.718;2023-09-19T04:45:04;13.90;99.90
18240;DHT22;9244;50.828;4.718;2023-09-19T04:47:30;13.90;99.90
18240;DHT22;9244;50.828;4.718;2023-09-19T04:49:56;13.90;99.90
18240;DHT22;9244;50.828;4.718;2023-09-19T04:52:24;13.90;99.90
18240;DHT22;9244;50.828;4.718;2023-09-19T04:54:50;13.90;99.90
18240;DHT22;9244;50.828;4.718;2023-09-19T04:57:15;13.80;99.90
18240;DHT22;9244;50.828;4.718;2023-09-19T04:59:41;13.80;99.90
18240;DHT22;9244;50.828;4.718;2023-09-19T05:02:07;13.90;99.90
18240;DHT22;9244;50.828;4.718;2023-09-19T05:04:37;13.80;99.90
18240;DHT22;9244;50.828;4.718;2023-09-19T05:07:03;13.80;99.90
18240;DHT22;9244;50.828;4.718;2023-09-19T05:09:29;13.70;99.90
18240;DHT22;9244;50.828;4.718;2023-09-19T05:11:55;13.70;99.90
18240;DHT22;9244;50.828;4.718;2023-09-19T05:14:21;13.70;99.90
18240;DHT22;9244;50.828;4.718;2023-09-19T05:16:48;13.80;99.90
18240;DHT22;9244;50.828;4.718;2023-09-19T05:19:13;13.70;99.90
18240;DHT22;9244;50.828;4.718;2023-09-19T05:21:39;13.70;99.90
18240;DHT22;9244;50.828;4.718;2023-09-19T05:24:05;13.60;99.90
18240;DHT22;9244;50.828;4.718;2023-09-19T05:26:33;13.60;99.90
18240;DHT22;9244;50.828;4.718;2023-09-19T05:28:59;13.70;99.90
18240;DHT22;9244;50.828;4.718;2023-09-19T05:31:26;13.60;99.90
18240;DHT22;9244;50.828;4.718;2023-09-19T05:33:53;13.60;99.90
18240;DHT22;9244;50.828;4.718;2023-09-19T05:36:20;13.60;99.90
18240;DHT22;9244;50.828;4.718;2023-09-19T05:38:46;13.60;99.90
18240;DHT22;9244;50.828;4.718;2023-09-19T05:41:15;13.60;99.90
18240;DHT22;9244;50.828;4.718;2023-09-19T05:43:41;13.70;99.90
18240;DHT22;9244;50.828;4.718;2023-09-19T05:46:07;13.70;99.90
18240;DHT22;9244;50.828;4.718;2023-09-19T05:48:34;13.70;99.90
18240;DHT22;9244;50.828;4.718;2023-09-19T05:50:59;13.70;99.90
18240;DHT22;9244;50.828;4.718;2023-09-19T05:53:26;13.70;99.90
18240;DHT22;9244;50.828;4.718;2023-09-19T05:55:52;13.70;99.90
18240;DHT22;9244;50.828;4.718;2023-09-19T05:58:18;13.70;99.90
18240;DHT22;9244;50.828;4.718;2023-09-19T06:00:45;13.70;99.90
18240;DHT22;9244;50.828;4.718;2023-09-19T06:03:14;13.80;99.90
18240;DHT22;9244;50.828;4.718;2023-09-19T06:05:40;13.90;99.90
18240;DHT22;9244;50.828;4.718;2023-09-19T06:08:07;13.90;99.90
18240;DHT22;9244;50.828;4.718;2023-09-19T06:10:33;13.90;99.90
18240;DHT22;9244;50.828;4.718;2023-09-19T06:13:01;13.90;99.90
18240;DHT22;9244;50.828;4.718;2023-09-19T06:15:29;13.90;99.90
18240;DHT22;9244;50.828;4.718;2023-09-19T06:17:58;14.00;99.90
18240;DHT22;9244;50.828;4.718;2023-09-19T06:20:25;14.00;99.90
18240;DHT22;9244;50.828;4.718;2023-09-19T06:22:52;14.10;99.90
18240;DHT22;9244;50.828;4.718;2023-09-19T06:25:18;14.10;99.90
18240;DHT22;9244;50.828;4.718;2023-09-19T06:27:53;14.10;99.90
18240;DHT22;9244;50.828;4.718;2023-09-19T06:30:20;14.20;99.90
18240;DHT22;9244;50.828;4.718;2023-09-19T06:32:47;14.20;99.90
18240;DHT22;9244;50.828;4.718;2023-09-19T06:35:14;14.20;99.90
18240;DHT22;9244;50.828;4.718;2023-09-19T06:37:41;14.20;99.90
18240;DHT22;9244;50.828;4.718;2023-09-19T06:40:12;14.30;99.90
18240;DHT22;9244;50.828;4.718;2023-09-19T06:42:41;14.30;99.90
18240;DHT22;9244;50.828;4.718;2023-09-19T06:45:07;14.30;99.90
18240;DHT22;9244;50.828;4.718;2023-09-19T06:47:33;14.40;99.90
18240;DHT22;9244;50.828;4.718;2023-09-19T06:49:59;14.40;99.90
18240;DHT22;9244;50.828;4.718;2023-09-19T06:52:24;14.50;99.90
18240;DHT22;9244;50.828;4.718;2023-09-19T06:54:51;14.50;99.90
18240;DHT22;9244;50.828;4.718;2023-09-19T06:57:17;14.50;99.90
18240;DHT22;9244;50.828;4.718;2023-09-19T06:59:43;14.50;99.90
18240;DHT22;9244;50.828;4.718;2023-09-19T07:02:10;14.60;99.90
18240;DHT22;9244;50.828;4.718;2023-09-19T07:04:36;14.50;99.90
18240;DHT22;9244;50.828;4.718;2023-09-19T07:07:01;14.60;99.90
18240;DHT22;9244;50.828;4.718;2023-09-19T07:09:27;14.60;99.90
18240;DHT22;9244;50.828;4.718;2023-09-19T07:11:54;14.70;99.90
18240;DHT22;9244;50.828;4.718;2023-09-19T07:14:19;14.70;99.90
18240;DHT22;9244;50.828;4.718;2023-09-19T07:16:45;14.70;99.90
18240;DHT22;9244;50.828;4.718;2023-09-19T07:19:13;14.80;99.90
18240;DHT22;9244;50.828;4.718;2023-09-19T07:21:40;14.90;99.90
18240;DHT22;9244;50.828;4.718;2023-09-19T07:24:06;14.90;99.90
18240;DHT22;9244;50.828;4.718;2023-09-19T07:26:33;15.00;99.90
18240;DHT22;9244;50.828;4.718;2023-09-19T07:28:59;15.20;99.90
18240;DHT22;9244;50.828;4.718;2023-09-19T07:31:27;15.20;99.90
18240;DHT22;9244;50.828;4.718;2023-09-19T07:33:54;15.20;99.90
18240;DHT22;9244;50.828;4.718;2023-09-19T07:36:19;15.50;99.90
18240;DHT22;9244;50.828;4.718;2023-09-19T07:38:45;15.80;99.90
18240;DHT22;9244;50.828;4.718;2023-09-19T07:41:11;15.80;99.90
18240;DHT22;9244;50.828;4.718;2023-09-19T07:43:37;15.90;99.90
18240;DHT22;9244;50.828;4.718;2023-09-19T07:46:06;16.00;99.90
18240;DHT22;9244;50.828;4.718;2023-09-19T07:48:35;16.20;99.90
18240;DHT22;9244;50.828;4.718;2023-09-19T07:51:07;16.30;99.90
18240;DHT22;9244;50.828;4.718;2023-09-19T07:53:35;16.30;99.90
18240;DHT22;9244;50.828;4.718;2023-09-19T07:56:06;16.20;99.90
18240;DHT22;9244;50.828;4.718;2023-09-19T07:58:32;16.40;99.90
18240;DHT22;9244;50.828;4.718;2023-09-19T08:01:08;16.30;99.90
18240;DHT22;9244;50.828;4.718;2023-09-19T08:03:39;16.40;99.90
18240;DHT22;9244;50.828;4.718;2023-09-19T08:06:08;16.50;99.90
18240;DHT22;9244;50.828;4.718;2023-09-19T08:08:34;16.60;99.90
18240;DHT22;9244;50.828;4.718;2023-09-19T08:11:04;16.60;99.90
18240;DHT22;9244;50.828;4.718;2023-09-19T08:13:38;16.50;99.90
18240;DHT22;9244;50.828;4.718;2023-09-19T08:16:09;16.50;99.90
18240;DHT22;9244;50.828;4.718;2023-09-19T08:18:36;16.80;99.90
18240;DHT22;9244;50.828;4.718;2023-09-19T08:21:03;17.00;99.90
18240;DHT22;9244;50.828;4.718;2023-09-19T08:23:28;17.00;99.90
18240;DHT22;9244;50.828;4.718;2023-09-19T08:25:57;16.90;99.90
18240;DHT22;9244;50.828;4.718;2023-09-19T08:28:23;16.80;99.90
18240;DHT22;9244;50.828;4.718;2023-09-19T08:30:50;17.00;99.90
18240;DHT22;9244;50.828;4.718;2023-09-19T08:33:16;17.10;99.90
18240;DHT22;9244;50.828;4.718;2023-09-19T08:35:42;17.20;99.90
18240;DHT22;9244;50.828;4.718;2023-09-19T08:38:09;17.50;99.90
18240;DHT22;9244;50.828;4.718;2023-09-19T08:40:39;17.60;99.90
18240;DHT22;9244;50.828;4.718;2023-09-19T08:43:06;17.50;99.90
18240;DHT22;9244;50.828;4.718;2023-09-19T08:45:33;17.40;99.90
18240;DHT22;9244;50.828;4.718;2023-09-19T08:48:23;17.60;99.90
18240;DHT22;9244;50.828;4.718;2023-09-19T08:51:06;17.40;99.90
18240;DHT22;9244;50.828;4.718;2023-09-19T08:56:17;17.70;99.90
18240;DHT22;9244;50.828;4.718;2023-09-19T08:59:04;18.10;99.90
18240;DHT22;9244;50.828;4.718;2023-09-19T09:01:31;18.30;99.90
18240;DHT22;9244;50.828;4.718;2023-09-19T09:03:58;18.30;99.90
18240;DHT22;9244;50.828;4.718;2023-09-19T09:06:25;18.20;99.90
18240;DHT22;9244;50.828;4.718;2023-09-19T09:08:51;18.20;99.90
18240;DHT22;9244;50.828;4.718;2023-09-19T09:11:18;18.40;99.90
18240;DHT22;9244;50.828;4.718;2023-09-19T09:13:47;18.60;99.90
18240;DHT22;9244;50.828;4.718;2023-09-19T09:16:14;18.70;99.90
18240;DHT22;9244;50.828;4.718;2023-09-19T09:18:44;19.00;99.90
18240;DHT22;9244;50.828;4.718;2023-09-19T09:21:11;18.70;99.90
18240;DHT22;9244;50.828;4.718;2023-09-19T09:23:36;18.70;99.90
18240;DHT22;9244;50.828;4.718;2023-09-19T09:26:02;18.40;99.90
18240;DHT22;9244;50.828;4.718;2023-09-19T09:28:32;18.50;99.90
18240;DHT22;9244;50.828;4.718;2023-09-19T09:30:59;18.50;99.90
18240;DHT22;9244;50.828;4.718;2023-09-19T09:33:25;18.60;99.90
18240;DHT22;9244;50.828;4.718;2023-09-19T09:35:55;19.00;99.90
18240;DHT22;9244;50.828;4.718;2023-09-19T09:38:29;19.20;99.90
18240;DHT22;9244;50.828;4.718;2023-09-19T09:40:59;19.00;99.90
18240;DHT22;9244;50.828;4.718;2023-09-19T09:46:09;19.00;99.90
18240;DHT22;9244;50.828;4.718;2023-09-19T09:49:04;19.00;99.90
18240;DHT22;9244;50.828;4.718;2023-09-19T09:52:04;18.50;99.90
18240;DHT22;9244;50.828;4.718;2023-09-19T09:55:01;18.40;99.90
18240;DHT22;9244;50.828;4.718;2023-09-19T09:57:31;18.20;99.90
18240;DHT22;9244;50.828;4.718;2023-09-19T09:59:59;18.30;99.90
18240;DHT22;9244;50.828;4.718;2023-09-19T10:02:42;18.40;99.90
18240;DHT22;9244;50.828;4.718;2023-09-19T10:05:20;18.30;99.90
18240;DHT22;9244;50.828;4.718;2023-09-19T10:07:46;18.30;99.90
18240;DHT22;9244;50.828;4.718;2023-09-19T10:13:06;18.00;99.90
18240;DHT22;9244;50.828;4.718;2023-09-19T10:15:33;18.00;99.90
18240;DHT22;9244;50.828;4.718;2023-09-19T10:18:05;18.10;99.90
18240;DHT22;9244;50.828;4.718;2023-09-19T10:20:33;18.40;99.90
18240;DHT22;9244;50.828;4.718;2023-09-19T10:23:06;18.40;99.90
18240;DHT22;9244;50.828;4.718;2023-09-19T10:25:37;18.40;99.90
18240;DHT22;9244;50.828;4.718;2023-09-19T10:28:06;18.60;99.90
18240;DHT22;9244;50.828;4.718;2023-09-19T10:30:38;18.70;99.90
18240;DHT22;9244;50.828;4.718;2023-09-19T10:33:09;18.70;99.90
18240;DHT22;9244;50.828;4.718;2023-09-19T10:35:38;18.80;99.90
18240;DHT22;9244;50.828;4.718;2023-09-19T10:38:10;18.90;99.90
18240;DHT22;9244;50.828;4.718;2023-09-19T10:40:37;19.10;99.90
18240;DHT22;9244;50.828;4.718;2023-09-19T10:43:06;18.80;99.90
18240;DHT22;9244;50.828;4.718;2023-09-19T10:45:34;19.00;99.90
18240;DHT22;9244;50.828;4.718;2023-09-19T10:48:01;19.20;99.90
18240;DHT22;9244;50.828;4.718;2023-09-19T10:50:48;19.50;99.90
18240;DHT22;9244;50.828;4.718;2023-09-19T10:53:17;19.50;99.90
18240;DHT22;9244;50.828;4.718;2023-09-19T10:55:50;19.60;99.90
18240;DHT22;9244;50.828;4.718;2023-09-19T10:58:27;19.80;99.90
18240;DHT22;9244;50.828;4.718;2023-09-19T11:00:58;19.60;99.90
18240;DHT22;9244;50.828;4.718;2023-09-19T11:03:43;19.90;99.90
18240;DHT22;9244;50.828;4.718;2023-09-19T11:06:14;19.50;99.90
18240;DHT22;9244;50.828;4.718;2023-09-19T11:08:59;19.50;99.90
18240;DHT22;9244;50.828;4.718;2023-09-19T11:11:40;19.60;99.90
18240;DHT22;9244;50.828;4.718;2023-09-19T11:14:37;19.70;99.90
18240;DHT22;9244;50.828;4.718;2023-09-19T11:30:43;21.00;99.90
18240;DHT22;9244;50.828;4.718;2023-09-19T11:36:08;20.60;99.90
18240;DHT22;9244;50.828;4.718;2023-09-19T11:46:17;20.20;99.90
18240;DHT22;9244;50.828;4.718;2023-09-19T11:48:48;20.20;99.90
18240;DHT22;9244;50.828;4.718;2023-09-19T11:51:16;20.50;99.90
18240;DHT22;9244;50.828;4.718;2023-09-19T11:53:48;20.30;99.90
18240;DHT22;9244;50.828;4.718;2023-09-19T11:56:16;19.90;99.90
18240;DHT22;9244;50.828;4.718;2023-09-19T11:58:44;20.40;99.90
18240;DHT22;9244;50.828;4.718;2023-09-19T12:01:13;20.00;99.90
18240;DHT22;9244;50.828;4.718;2023-09-19T12:03:46;20.30;99.90
18240;DHT22;9244;50.828;4.718;2023-09-19T12:06:14;20.50;99.90
18240;DHT22;9244;50.828;4.718;2023-09-19T12:08:44;20.60;99.90
18240;DHT22;9244;50.828;4.718;2023-09-19T12:11:16;20.50;99.90
18240;DHT22;9244;50.828;4.718;2023-09-19T12:13:45;20.00;99.90
18240;DHT22;9244;50.828;4.718;2023-09-19T12:16:19;20.20;99.90
18240;DHT22;9244;50.828;4.718;2023-09-19T12:18:48;20.00;99.90
18240;DHT22;9244;50.828;4.718;2023-09-19T12:21:41;20.00;99.90
18240;DHT22;9244;50.828;4.718;2023-09-19T12:24:13;20.10;99.90
18240;DHT22;9244;50.828;4.718;2023-09-19T12:26:43;19.90;99.90
18240;DHT22;9244;50.828;4.718;2023-09-19T12:29:16;19.90;99.90
18240;DHT22;9244;50.828;4.718;2023-09-19T12:31:56;20.00;99.90
18240;DHT22;9244;50.828;4.718;2023-09-19T12:34:30;20.10;99.90
18240;DHT22;9244;50.828;4.718;2023-09-19T12:37:09;19.80;99.90
18240;DHT22;9244;50.828;4.718;2023-09-19T12:39:42;19.70;99.90
18240;DHT22;9244;50.828;4.718;2023-09-19T12:42:12;19.30;99.90
18240;DHT22;9244;50.828;4.718;2023-09-19T12:44:42;19.20;99.90
18240;DHT22;9244;50.828;4.718;2023-09-19T12:47:16;19.20;99.90
18240;DHT22;9244;50.828;4.718;2023-09-19T12:50:34;19.20;99.90
18240;DHT22;9244;50.828;4.718;2023-09-19T12:52:55;19.20;99.90
18240;DHT22;9244;50.828;4.718;2023-09-19T12:55:26;19.00;99.90
18240;DHT22;9244;50.828;4.718;2023-09-19T13:05:50;19.40;99.90
18240;DHT22;9244;50.828;4.718;2023-09-19T13:08:20;19.70;99.90
18240;DHT22;9244;50.828;4.718;2023-09-19T13:11:05;20.20;99.90
18240;DHT22;9244;50.828;4.718;2023-09-19T13:13:43;20.40;99.90
18240;DHT22;9244;50.828;4.718;2023-09-19T13:16:20;20.50;99.90
18240;DHT22;9244;50.828;4.718;2023-09-19T13:23:54;21.10;99.90
18240;DHT22;9244;50.828;4.718;2023-09-19T13:26:25;20.40;99.90
18240;DHT22;9244;50.828;4.718;2023-09-19T13:28:51;20.00;99.90
18240;DHT22;9244;50.828;4.718;2023-09-19T13:31:16;19.70;99.90
18240;DHT22;9244;50.828;4.718;2023-09-19T13:33:43;19.70;99.90
18240;DHT22;9244;50.828;4.718;2023-09-19T13:36:10;19.80;99.90
18240;DHT22;9244;50.828;4.718;2023-09-19T13:38:37;19.70;99.90
18240;DHT22;9244;50.828;4.718;2023-09-19T13:41:03;19.70;99.90
18240;DHT22;9244;50.828;4.718;2023-09-19T13:43:28;19.60;99.90
18240;DHT22;9244;50.828;4.718;2023-09-19T13:45:54;19.50;99.90
18240;DHT22;9244;50.828;4.718;2023-09-19T13:48:20;19.40;99.90
18240;DHT22;9244;50.828;4.718;2023-09-19T13:50:48;19.50;99.90
18240;DHT22;9244;50.828;4.718;2023-09-19T13:53:14;19.50;99.90
18240;DHT22;9244;50.828;4.718;2023-09-19T13:55:40;19.50;99.90
18240;DHT22;9244;50.828;4.718;2023-09-19T13:58:06;19.60;99.90
18240;DHT22;9244;50.828;4.718;2023-09-19T14:00:33;19.50;99.90
18240;DHT22;9244;50.828;4.718;2023-09-19T14:03:01;19.60;99.90
18240;DHT22;9244;50.828;4.718;2023-09-19T14:05:27;19.60;99.90
18240;DHT22;9244;50.828;4.718;2023-09-19T14:07:55;19.50;99.90
18240;DHT22;9244;50.828;4.718;2023-09-19T14:10:21;19.30;99.90
18240;DHT22;9244;50.828;4.718;2023-09-19T14:12:47;19.30;99.90
18240;DHT22;9244;50.828;4.718;2023-09-19T14:15:13;19.20;99.90
18240;DHT22;9244;50.828;4.718;2023-09-19T14:17:40;19.20;99.90
18240;DHT22;9244;50.828;4.718;2023-09-19T14:20:11;19.30;99.90
18240;DHT22;9244;50.828;4.718;2023-09-19T14:22:36;19.40;99.90
18240;DHT22;9244;50.828;4.718;2023-09-19T14:25:04;19.30;99.90
18240;DHT22;9244;50.828;4.718;2023-09-19T14:27:30;19.20;99.90
18240;DHT22;9244;50.828;4.718;2023-09-19T14:29:55;19.10;99.90
18240;DHT22;9244;50.828;4.718;2023-09-19T14:32:23;19.10;99.90
18240;DHT22;9244;50.828;4.718;2023-09-19T14:34:48;19.10;99.90
18240;DHT22;9244;50.828;4.718;2023-09-19T14:37:14;19.00;99.90
18240;DHT22;9244;50.828;4.718;2023-09-19T14:39:42;19.10;99.90
18240;DHT22;9244;50.828;4.718;2023-09-19T14:42:10;19.10;99.90
18240;DHT22;9244;50.828;4.718;2023-09-19T14:44:36;19.10;99.90
18240;DHT22;9244;50.828;4.718;2023-09-19T14:47:03;19.30;99.90
18240;DHT22;9244;50.828;4.718;2023-09-19T14:49:35;19.30;99.90
18240;DHT22;9244;50.828;4.718;2023-09-19T14:52:03;19.40;99.90
18240;DHT22;9244;50.828;4.718;2023-09-19T14:54:30;19.30;99.90
18240;DHT22;9244;50.828;4.718;2023-09-19T14:56:56;19.10;99.90
18240;DHT22;9244;50.828;4.718;2023-09-19T14:59:34;19.00;99.90
18240;DHT22;9244;50.828;4.718;2023-09-19T15:02:05;19.00;99.90
18240;DHT22;9244;50.828;4.718;2023-09-19T15:04:31;18.90;99.90
18240;DHT22;9244;50.828;4.718;2023-09-19T15:06:57;18.90;99.90
18240;DHT22;9244;50.828;4.718;2023-09-19T15:09:24;19.00;99.90
18240;DHT22;9244;50.828;4.718;2023-09-19T15:11:52;19.00;99.90
18240;DHT22;9244;50.828;4.718;2023-09-19T15:14:18;19.10;99.90
18240;DHT22;9244;50.828;4.718;2023-09-19T15:16:43;19.20;99.90
18240;DHT22;9244;50.828;4.718;2023-09-19T15:19:09;19.30;99.90
18240;DHT22;9244;50.828;4.718;2023-09-19T15:21:36;19.30;99.90
18240;DHT22;9244;50.828;4.718;2023-09-19T15:24:03;19.10;99.90
18240;DHT22;9244;50.828;4.718;2023-09-19T15:26:29;19.20;99.90
18240;DHT22;9244;50.828;4.718;2023-09-19T15:28:55;19.20;99.90
18240;DHT22;9244;50.828;4.718;2023-09-19T15:31:21;19.10;99.90
18240;DHT22;9244;50.828;4.718;2023-09-19T15:33:47;19.10;99.90
18240;DHT22;9244;50.828;4.718;2023-09-19T15:36:14;19.00;99.90
18240;DHT22;9244;50.828;4.718;2023-09-19T15:41:32;18.80;99.90
18240;DHT22;9244;50.828;4.718;2023-09-19T15:44:00;18.80;99.90
18240;DHT22;9244;50.828;4.718;2023-09-19T15:46:27;18.80;99.90
18240;DHT22;9244;50.828;4.718;2023-09-19T15:48:57;18.80;99.90
18240;DHT22;9244;50.828;4.718;2023-09-19T15:51:23;18.80;99.90
18240;DHT22;9244;50.828;4.718;2023-09-19T15:53:51;18.80;99.90
18240;DHT22;9244;50.828;4.718;2023-09-19T15:56:19;18.70;99.90
18240;DHT22;9244;50.828;4.718;2023-09-19T15:58:47;18.70;99.90
18240;DHT22;9244;50.828;4.718;2023-09-19T16:01:14;18.60;99.90
18240;DHT22;9244;50.828;4.718;2023-09-19T16:03:48;18.70;99.90
18240;DHT22;9244;50.828;4.718;2023-09-19T16:06:15;18.70;99.90
18240;DHT22;9244;50.828;4.718;2023-09-19T16:08:50;18.70;99.90
18240;DHT22;9244;50.828;4.718;2023-09-19T16:11:17;18.70;99.90
18240;DHT22;9244;50.828;4.718;2023-09-19T16:13:47;18.60;99.90
18240;DHT22;9244;50.828;4.718;2023-09-19T16:16:13;18.60;99.90
18240;DHT22;9244;50.828;4.718;2023-09-19T16:18:48;18.60;99.90
18240;DHT22;9244;50.828;4.718;2023-09-19T16:21:14;18.60;99.90
18240;DHT22;9244;50.828;4.718;2023-09-19T16:23:41;18.50;99.90
18240;DHT22;9244;50.828;4.718;2023-09-19T16:26:09;18.50;99.90
18240;DHT22;9244;50.828;4.718;2023-09-19T16:28:36;18.50;99.90
18240;DHT22;9244;50.828;4.718;2023-09-19T16:31:03;18.60;99.90
18240;DHT22;9244;50.828;4.718;2023-09-19T16:33:31;18.50;99.90
18240;DHT22;9244;50.828;4.718;2023-09-19T16:35:57;18.50;99.90
18240;DHT22;9244;50.828;4.718;2023-09-19T16:38:25;18.50;99.90
18240;DHT22;9244;50.828;4.718;2023-09-19T16:40:55;18.50;99.90
18240;DHT22;9244;50.828;4.718;2023-09-19T16:43:22;18.50;99.90
18240;DHT22;9244;50.828;4.718;2023-09-19T16:45:58;18.50;99.90
18240;DHT22;9244;50.828;4.718;2023-09-19T16:48:24;18.50;99.90
18240;DHT22;9244;50.828;4.718;2023-09-19T16:51:02;18.50;99.90
18240;DHT22;9244;50.828;4.718;2023-09-19T16:53:29;18.40;99.90
18240;DHT22;9244;50.828;4.718;2023-09-19T16:56:01;18.40;99.90
18240;DHT22;9244;50.828;4.718;2023-09-19T16:58:27;18.40;99.90
18240;DHT22;9244;50.828;4.718;2023-09-19T17:00:52;18.40;99.90
18240;DHT22;9244;50.828;4.718;2023-09-19T17:03:18;18.40;99.90